Time;durP1;ratioP1;P1;durP2;ratioP2;P2;SDS_P1;SDS_P2;PMS_P1;PMS_P2;Temp;Humidity;BMP_temperature;BMP_pressure;BME280_temperature;BME280_humidity;BME280_pressure;Samples;Min_cycle;Max_cycle;Signal;HPM_P1;HPM_P2
2024/01/27 00:01:25;;;;;;;;;;;;;;;5.03;86.49;101241.66;105604;1256;73592;-47
2024/01/27 00:03:54;;;;;;;;;;;;;;;5.02;86.40;101240.48;105641;1256;69885;-50
2024/01/27 00:06:23;;;;;;;;;;;;;;;5.01;86.30;101248.25;105656;1256;69908;-48
2024/01/27 00:08:51;;;;;;;;;;;;;;;5.00;85.99;101248.60;105695;1255;73829;-48
2024/01/27 00:11:20;;;;;;;;;;;;;;;5.00;86.08;101251.37;105628;1255;82352;-49
2024/01/27 00:13:52;;;;;;;;;;;;;;;4.99;85.98;101248.77;105633;1251;73814;-50
2024/01/27 00:16:20;;;;;;;;;;;;;;;4.96;85.83;101250.52;105582;1256;69924;-49
2024/01/27 00:18:49;;;;;;;;;;;;;;;4.95;85.91;101252.23;105616;1256;69987;-48
2024/01/27 00:21:18;;;;;;;;;;;;;;;4.94;85.73;101252.42;105555;1254;73637;-48
2024/01/27 00:23:46;;;;;;;;;;;;;;;4.91;85.61;101254.33;105591;1264;83574;-49
2024/01/27 00:26:15;;;;;;;;;;;;;;;4.89;85.61;101262.47;105609;1256;73788;-49
2024/01/27 00:28:43;;;;;;;;;;;;;;;4.87;85.75;101261.08;105641;1251;69948;-48
2024/01/27 00:31:12;;;;;;;;;;;;;;;4.81;85.75;101273.02;105589;1256;70564;-49
2024/01/27 00:33:40;;;;;;;;;;;;;;;4.73;85.87;101262.46;105615;1256;74122;-48
2024/01/27 00:36:09;;;;;;;;;;;;;;;4.66;85.71;101267.13;105619;1256;83216;-49
2024/01/27 00:38:38;;;;;;;;;;;;;;;4.64;85.92;101257.07;105607;1256;73702;-50
2024/01/27 00:41:07;;;;;;;;;;;;;;;4.61;85.88;101260.20;105568;1256;69924;-48
2024/01/27 00:43:35;;;;;;;;;;;;;;;4.57;85.79;101264.17;105585;1256;70251;-49
2024/01/27 00:46:03;;;;;;;;;;;;;;;4.57;85.93;101278.38;105595;1256;74931;-50
2024/01/27 00:48:32;;;;;;;;;;;;;;;4.58;85.96;101279.75;105640;1256;83174;-49
2024/01/27 00:51:00;;;;;;;;;;;;;;;4.56;86.12;101286.50;105626;1256;72690;-48
2024/01/27 00:53:29;;;;;;;;;;;;;;;4.50;86.22;101280.59;105605;1255;69966;-49
2024/01/27 00:55:57;;;;;;;;;;;;;;;4.42;86.25;101275.90;105601;1253;69921;-49
2024/01/27 00:58:26;;;;;;;;;;;;;;;4.34;86.30;101279.53;105619;1257;73982;-49
2024/01/27 01:00:54;;;;;;;;;;;;;;;4.30;86.55;101280.03;105641;1255;83436;-49
2024/01/27 01:03:22;;;;;;;;;;;;;;;4.27;86.67;101278.46;105560;1256;73905;-48
2024/01/27 01:05:51;;;;;;;;;;;;;;;4.23;86.69;101283.13;105594;1256;69984;-49
2024/01/27 01:08:19;;;;;;;;;;;;;;;4.20;86.87;101284.15;105585;1256;70094;-50
2024/01/27 01:10:48;;;;;;;;;;;;;;;4.18;86.79;101288.98;105618;1251;73996;-49
2024/01/27 01:13:16;;;;;;;;;;;;;;;4.15;86.90;101298.48;105664;1255;82940;-50
2024/01/27 01:15:45;;;;;;;;;;;;;;;4.13;86.91;101303.16;105638;1254;73669;-50
2024/01/27 01:18:13;;;;;;;;;;;;;;;4.10;87.03;101302.27;105615;1251;69990;-49
2024/01/27 01:20:42;;;;;;;;;;;;;;;4.06;87.10;101300.18;105599;1256;70002;-49
2024/01/27 01:23:10;;;;;;;;;;;;;;;4.05;87.31;101298.28;105687;1256;74924;-48
2024/01/27 01:25:38;;;;;;;;;;;;;;;4.04;87.30;101295.50;105615;1257;83759;-53
2024/01/27 01:28:07;;;;;;;;;;;;;;;4.00;87.23;101291.16;105710;1256;74294;-51
2024/01/27 01:30:36;;;;;;;;;;;;;;;3.99;87.23;101287.35;105664;1256;69158;-52
2024/01/27 01:33:04;;;;;;;;;;;;;;;3.96;87.30;101293.40;105627;1255;69941;-49
2024/01/27 01:35:32;;;;;;;;;;;;;;;3.96;87.38;101295.66;105557;1256;73035;-49
2024/01/27 01:38:00;;;;;;;;;;;;;;;3.98;87.45;101297.05;105609;1256;81898;-50
2024/01/27 01:40:28;;;;;;;;;;;;;;;4.01;87.46;101303.80;105583;1256;71892;-50
2024/01/27 01:42:58;;;;;;;;;;;;;;;4.04;87.45;101301.89;105538;1255;69905;-49
2024/01/27 01:45:26;;;;;;;;;;;;;;;4.06;87.32;101306.23;105670;1255;70006;-49
2024/01/27 01:47:54;;;;;;;;;;;;;;;4.09;87.34;101311.97;105586;1251;74054;-50
2024/01/27 01:50:23;;;;;;;;;;;;;;;4.12;87.22;101317.52;105631;1256;81578;-49
2024/01/27 01:52:52;;;;;;;;;;;;;;;4.16;87.19;101317.52;105608;1255;71682;-50
2024/01/27 01:55:20;;;;;;;;;;;;;;;4.20;87.03;101309.23;105636;1257;70033;-51
2024/01/27 01:57:49;;;;;;;;;;;;;;;4.22;86.78;101316.17;105561;1257;69973;-50
2024/01/27 02:00:17;;;;;;;;;;;;;;;4.23;86.76;101310.98;105579;1256;71999;-50
2024/01/27 02:02:45;;;;;;;;;;;;;;;4.23;86.18;101303.02;105647;1255;81412;-50
2024/01/27 02:05:14;;;;;;;;;;;;;;;4.22;86.31;101304.58;105608;1251;72007;-49
2024/01/27 02:07:43;;;;;;;;;;;;;;;4.21;86.02;101318.77;105619;1252;69926;-51
2024/01/27 02:10:15;;;;;;;;;;;;;;;4.19;85.93;101309.92;105631;1256;69981;-49
2024/01/27 02:12:44;;;;;;;;;;;;;;;4.17;85.80;101313.55;105613;1257;74223;-50
2024/01/27 02:15:12;;;;;;;;;;;;;;;4.17;85.52;101308.18;105563;1256;81552;-49
2024/01/27 02:17:41;;;;;;;;;;;;;;;4.17;85.52;101315.28;105617;1255;73123;-50
2024/01/27 02:20:10;;;;;;;;;;;;;;;4.16;85.35;101311.13;105595;1251;69984;-50
2024/01/27 02:22:38;;;;;;;;;;;;;;;4.16;85.17;101310.25;105672;1257;70068;-50
2024/01/27 02:25:06;;;;;;;;;;;;;;;4.14;85.10;101320.98;105619;1252;74849;-50
2024/01/27 02:27:34;;;;;;;;;;;;;;;4.13;85.04;101332.90;105559;1257;82022;-50
2024/01/27 02:30:02;;;;;;;;;;;;;;;4.13;84.69;101332.04;105603;1253;71691;-56
2024/01/27 02:32:31;;;;;;;;;;;;;;;4.14;84.70;101333.42;105619;1252;70719;-53
2024/01/27 02:34:59;;;;;;;;;;;;;;;4.14;84.73;101329.80;105592;1257;69220;-53
2024/01/27 02:37:27;;;;;;;;;;;;;;;4.14;84.84;101343.81;105623;1251;73025;-51
2024/01/27 02:39:55;;;;;;;;;;;;;;;4.13;84.66;101346.06;105598;1255;81513;-54
2024/01/27 02:42:23;;;;;;;;;;;;;;;4.15;84.42;101360.59;105558;1254;72166;-53
2024/01/27 02:44:51;;;;;;;;;;;;;;;4.16;84.47;101356.62;105570;1257;69150;-53
2024/01/27 02:47:19;;;;;;;;;;;;;;;4.19;84.27;101367.36;105575;1265;69234;-55
2024/01/27 02:49:48;;;;;;;;;;;;;;;4.21;84.31;101368.05;105601;1255;72383;-55
2024/01/27 02:52:16;;;;;;;;;;;;;;;4.22;84.01;101374.98;105602;1256;81573;-54
2024/01/27 02:54:44;;;;;;;;;;;;;;;4.23;83.82;101377.40;105567;1251;70394;-54
2024/01/27 02:57:13;;;;;;;;;;;;;;;4.23;83.91;101378.09;105540;1251;69077;-53
2024/01/27 02:59:41;;;;;;;;;;;;;;;4.23;83.95;101384.33;105725;1255;69167;-55
2024/01/27 03:02:09;;;;;;;;;;;;;;;4.22;83.86;101386.92;105727;1256;72802;-57
2024/01/27 03:04:37;;;;;;;;;;;;;;;4.22;83.77;101387.98;105670;1255;82827;-55
2024/01/27 03:07:05;;;;;;;;;;;;;;;4.22;83.69;101387.96;105668;1256;73001;-57
2024/01/27 03:09:33;;;;;;;;;;;;;;;4.22;83.74;101394.54;105604;1255;69119;-53
2024/01/27 03:12:01;;;;;;;;;;;;;;;4.22;83.70;101395.58;105559;1257;69177;-54
2024/01/27 03:14:30;;;;;;;;;;;;;;;4.21;83.53;101386.58;105542;1257;72740;-53
2024/01/27 03:16:58;;;;;;;;;;;;;;;4.21;83.49;101391.41;105632;1256;81217;-53
2024/01/27 03:19:26;;;;;;;;;;;;;;;4.21;83.25;101398.67;105651;1255;73902;-52
2024/01/27 03:21:55;;;;;;;;;;;;;;;4.22;83.19;101400.25;105601;1256;69934;-53
2024/01/27 03:24:23;;;;;;;;;;;;;;;4.21;83.01;101408.20;105636;1257;69174;-54
2024/01/27 03:26:51;;;;;;;;;;;;;;;4.20;82.96;101402.65;105610;1251;73230;-53
2024/01/27 03:29:19;;;;;;;;;;;;;;;4.20;82.63;101406.80;105635;1258;83334;-54
2024/01/27 03:31:49;;;;;;;;;;;;;;;4.20;82.57;101399.37;105593;1254;71815;-51
2024/01/27 03:34:19;;;;;;;;;;;;;;;4.20;82.25;101404.91;105622;1252;69954;-53
2024/01/27 03:36:48;;;;;;;;;;;;;;;4.20;82.26;101404.73;105618;1257;69189;-53
2024/01/27 03:39:16;;;;;;;;;;;;;;;4.19;81.96;101408.18;105691;1256;73011;-54
2024/01/27 03:41:44;;;;;;;;;;;;;;;4.18;81.90;101398.48;105597;1251;81994;-53
2024/01/27 03:44:12;;;;;;;;;;;;;;;4.17;81.94;101400.73;105561;1256;71775;-52
2024/01/27 03:46:40;;;;;;;;;;;;;;;4.16;81.76;101404.70;105589;1251;69177;-52
2024/01/27 03:49:08;;;;;;;;;;;;;;;4.15;81.56;101404.87;105616;1257;69240;-53
2024/01/27 03:51:37;;;;;;;;;;;;;;;4.13;81.79;101399.69;105619;1256;74151;-52
2024/01/27 03:54:06;;;;;;;;;;;;;;;4.12;81.67;101396.90;105659;1257;82088;-53
2024/01/27 03:56:34;;;;;;;;;;;;;;;4.09;81.40;101388.94;105631;1251;71978;-51
2024/01/27 03:59:04;;;;;;;;;;;;;;;4.09;81.18;101395.84;105598;1255;69160;-53
2024/01/27 04:01:32;;;;;;;;;;;;;;;4.09;81.32;101397.58;105649;1255;69947;-54
2024/01/27 04:04:00;;;;;;;;;;;;;;;4.07;81.10;101400.85;105647;1255;73642;-54
2024/01/27 04:06:29;;;;;;;;;;;;;;;4.05;81.15;101402.59;105614;1256;81737;-52
2024/01/27 04:08:57;;;;;;;;;;;;;;;4.03;80.67;101397.54;105586;1251;72097;-53
2024/01/27 04:11:25;;;;;;;;;;;;;;;4.00;80.63;101389.40;105556;1257;69233;-53
2024/01/27 04:13:53;;;;;;;;;;;;;;;3.96;80.49;101401.48;105564;1256;69954;-53
2024/01/27 04:16:21;;;;;;;;;;;;;;;3.92;80.56;101402.15;105693;1251;73245;-53
2024/01/27 04:18:49;;;;;;;;;;;;;;;3.89;80.62;101403.52;105599;1257;82797;-54
2024/01/27 04:21:17;;;;;;;;;;;;;;;3.85;80.55;101406.60;105634;1257;71939;-53
2024/01/27 04:23:46;;;;;;;;;;;;;;;3.83;80.57;101403.48;105616;1251;69132;-51
2024/01/27 04:26:14;;;;;;;;;;;;;;;3.80;80.40;101409.16;105590;1251;69164;-52
2024/01/27 04:28:42;;;;;;;;;;;;;;;3.78;80.42;101406.37;105604;1252;73654;-52
2024/01/27 04:31:10;;;;;;;;;;;;;;;3.75;80.27;101407.05;105589;1255;81935;-53
2024/01/27 04:33:39;;;;;;;;;;;;;;;3.73;80.33;101411.00;105595;1251;71899;-49
2024/01/27 04:36:08;;;;;;;;;;;;;;;3.72;80.46;101415.14;105680;1251;70357;-49
2024/01/27 04:38:36;;;;;;;;;;;;;;;3.70;80.20;101426.71;105681;1256;70008;-50
2024/01/27 04:41:04;;;;;;;;;;;;;;;3.69;80.50;101426.54;105638;1256;73582;-50
2024/01/27 04:43:32;;;;;;;;;;;;;;;3.67;80.54;101424.95;105634;1256;82052;-48
2024/01/27 04:46:01;;;;;;;;;;;;;;;3.65;80.41;101426.67;105581;1256;70498;-49
2024/01/27 04:48:29;;;;;;;;;;;;;;;3.64;80.66;101431.86;105587;1256;70021;-49
2024/01/27 04:50:57;;;;;;;;;;;;;;;3.61;80.46;101441.86;105613;1255;69929;-49
2024/01/27 04:53:25;;;;;;;;;;;;;;;3.59;80.45;101431.46;105548;1257;74094;-48
2024/01/27 04:55:53;;;;;;;;;;;;;;;3.57;80.45;101431.46;105519;1257;81242;-49
2024/01/27 04:58:21;;;;;;;;;;;;;;;3.57;80.56;101434.23;105518;1253;72796;-52
2024/01/27 05:00:49;;;;;;;;;;;;;;;3.58;80.45;101433.54;105517;1255;69898;-49
2024/01/27 05:03:17;;;;;;;;;;;;;;;3.60;80.56;101432.16;105645;1251;70073;-48
2024/01/27 05:05:46;;;;;;;;;;;;;;;3.59;80.52;101435.79;105566;1254;75064;-48
2024/01/27 05:08:14;;;;;;;;;;;;;;;3.58;80.29;101431.48;105571;1256;82724;-48
2024/01/27 05:10:42;;;;;;;;;;;;;;;3.58;80.42;101434.92;105584;1258;71939;-49
2024/01/27 05:13:11;;;;;;;;;;;;;;;3.55;80.39;101433.86;105573;1257;69915;-49
2024/01/27 05:15:39;;;;;;;;;;;;;;;3.53;80.16;101428.30;105561;1257;70127;-49
2024/01/27 05:18:07;;;;;;;;;;;;;;;3.49;80.27;101432.60;105520;1256;72632;-48
2024/01/27 05:20:35;;;;;;;;;;;;;;;3.45;80.30;101435.66;105649;1251;83006;-50
2024/01/27 05:23:04;;;;;;;;;;;;;;;3.44;80.55;101435.66;105505;1254;72155;-49
2024/01/27 05:25:32;;;;;;;;;;;;;;;3.42;80.40;101433.05;105582;1256;69941;-51
2024/01/27 05:28:00;;;;;;;;;;;;;;;3.41;80.57;101440.14;105577;1251;69899;-50
2024/01/27 05:30:28;;;;;;;;;;;;;;;3.40;80.55;101446.34;105598;1256;72979;-49
2024/01/27 05:32:56;;;;;;;;;;;;;;;3.39;80.37;101439.59;105565;1257;82767;-49
2024/01/27 05:35:25;;;;;;;;;;;;;;;3.38;80.38;101439.23;105639;1251;73768;-48
2024/01/27 05:37:53;;;;;;;;;;;;;;;3.33;80.62;101441.61;105530;1251;70018;-49
2024/01/27 05:40:21;;;;;;;;;;;;;;;3.32;80.60;101438.83;105629;1257;70006;-49
2024/01/27 05:42:50;;;;;;;;;;;;;;;3.29;80.70;101441.57;105608;1251;72029;-49
2024/01/27 05:45:18;;;;;;;;;;;;;;;3.28;80.67;101451.58;105665;1257;81651;-48
2024/01/27 05:47:46;;;;;;;;;;;;;;;3.27;80.78;101446.55;105560;1257;71710;-49
2024/01/27 05:50:14;;;;;;;;;;;;;;;3.26;80.73;101456.23;105476;1256;69977;-53
2024/01/27 05:52:43;;;;;;;;;;;;;;;3.25;80.83;101463.64;105479;1256;70045;-51
2024/01/27 05:55:12;;;;;;;;;;;;;;;3.24;80.97;101465.54;105541;1254;74486;-48
2024/01/27 05:57:40;;;;;;;;;;;;;;;3.24;81.05;101465.55;109383;1251;81311;-50
2024/01/27 06:00:09;;;;;;;;;;;;;;;3.25;80.90;101467.63;105666;1251;71534;-49
2024/01/27 06:02:37;;;;;;;;;;;;;;;3.27;81.11;101475.76;106803;1255;69923;-50
2024/01/27 06:05:08;;;;;;;;;;;;;;;3.29;81.01;101476.28;105619;1255;70022;-50
2024/01/27 06:07:40;;;;;;;;;;;;;;;3.28;81.18;101474.90;105561;1251;73145;-50
2024/01/27 06:10:08;;;;;;;;;;;;;;;3.29;81.18;101477.16;105648;1251;81492;-51
2024/01/27 06:12:37;;;;;;;;;;;;;;;3.30;81.22;101475.11;105612;1251;71738;-50
2024/01/27 06:15:06;;;;;;;;;;;;;;;3.33;81.39;101470.29;105750;1256;69947;-48
2024/01/27 06:17:34;;;;;;;;;;;;;;;3.37;81.49;101475.52;105646;1251;69967;-49
2024/01/27 06:20:03;;;;;;;;;;;;;;;3.42;81.49;101467.59;105688;1251;72925;-49
2024/01/27 06:22:32;;;;;;;;;;;;;;;3.45;81.55;101462.63;105630;1257;81646;-50
2024/01/27 06:25:00;;;;;;;;;;;;;;;3.46;81.55;101458.65;105695;1256;72283;-50
2024/01/27 06:27:29;;;;;;;;;;;;;;;3.46;81.59;101461.07;105615;1256;70097;-51
2024/01/27 06:29:57;;;;;;;;;;;;;;;3.46;81.36;101463.48;105644;1257;69945;-51
2024/01/27 06:32:25;;;;;;;;;;;;;;;3.44;81.43;101470.57;105581;1251;72881;-49
2024/01/27 06:34:53;;;;;;;;;;;;;;;3.44;81.33;101467.81;105548;1254;82641;-49
2024/01/27 06:37:22;;;;;;;;;;;;;;;3.44;81.55;101469.19;105594;1257;72095;-50
2024/01/27 06:39:50;;;;;;;;;;;;;;;3.42;81.28;101480.91;105602;1255;70368;-51
2024/01/27 06:42:18;;;;;;;;;;;;;;;3.42;81.47;101495.60;105649;1256;69993;-49
2024/01/27 06:44:46;;;;;;;;;;;;;;;3.41;81.48;101496.27;105670;1257;71444;-49
2024/01/27 06:47:14;;;;;;;;;;;;;;;3.41;81.84;101505.27;105549;1255;81598;-50
2024/01/27 06:49:43;;;;;;;;;;;;;;;3.41;81.55;101510.63;105566;1254;72207;-49
2024/01/27 06:52:12;;;;;;;;;;;;;;;3.45;81.78;101514.11;105561;1251;69816;-50
2024/01/27 06:54:43;;;;;;;;;;;;;;;3.50;82.16;101517.45;105694;1251;69894;-49
2024/01/27 06:57:21;;;;;;;;;;;;;;;3.54;81.96;101525.79;105634;1255;74613;-49
2024/01/27 06:59:52;;;;;;;;;;;;;;;3.60;82.12;101529.48;105602;1255;83081;-51
2024/01/27 07:02:23;;;;;;;;;;;;;;;3.64;82.03;101523.10;105576;1251;72907;-50
2024/01/27 07:04:52;;;;;;;;;;;;;;;3.67;81.98;101539.23;105621;1256;69967;-52
2024/01/27 07:07:22;;;;;;;;;;;;;;;3.70;81.88;101533.88;105660;1251;69071;-50
2024/01/27 07:09:51;;;;;;;;;;;;;;;3.73;81.98;101540.13;105593;1251;72133;-48
2024/01/27 07:12:19;;;;;;;;;;;;;;;3.76;81.98;101554.86;105667;1253;81786;-47
2024/01/27 07:14:47;;;;;;;;;;;;;;;3.78;81.82;101545.55;105619;1257;72276;-48
2024/01/27 07:17:15;;;;;;;;;;;;;;;3.80;81.96;101558.17;105598;1256;70003;-48
2024/01/27 07:19:43;;;;;;;;;;;;;;;3.81;82.07;101560.80;105658;1251;70055;-49
2024/01/27 07:22:12;;;;;;;;;;;;;;;3.83;81.84;101554.92;105578;1251;74154;-49
2024/01/27 07:24:41;;;;;;;;;;;;;;;3.84;81.88;101552.86;105577;1256;81420;-50
2024/01/27 07:27:11;;;;;;;;;;;;;;;3.84;81.83;101554.06;105645;1251;73011;-50
2024/01/27 07:29:40;;;;;;;;;;;;;;;3.84;82.03;101553.72;105614;1253;69807;-48
2024/01/27 07:32:13;;;;;;;;;;;;;;;3.85;81.96;101555.45;105620;1251;70082;-48
2024/01/27 07:34:41;;;;;;;;;;;;;;;3.86;81.80;101568.95;105748;1251;74129;-48
2024/01/27 07:37:09;;;;;;;;;;;;;;;3.88;81.89;101571.55;105556;1253;82883;-49
2024/01/27 07:39:37;;;;;;;;;;;;;;;3.90;82.03;101569.35;105613;1253;71726;-48
2024/01/27 07:42:06;;;;;;;;;;;;;;;3.92;82.11;101576.28;105691;1253;70342;-50
2024/01/27 07:44:34;;;;;;;;;;;;;;;3.93;82.07;101573.69;105596;1257;70009;-48
2024/01/27 07:47:02;;;;;;;;;;;;;;;3.95;81.94;101579.23;105647;1251;72860;-47
2024/01/27 07:49:30;;;;;;;;;;;;;;;3.97;81.95;101583.94;105648;1251;80704;-49
2024/01/27 07:51:59;;;;;;;;;;;;;;;3.98;81.78;101592.23;105630;1257;71617;-50
2024/01/27 07:54:27;;;;;;;;;;;;;;;3.99;81.98;101585.51;105602;1256;70080;-49
2024/01/27 07:56:55;;;;;;;;;;;;;;;4.01;81.90;101592.43;105664;1253;69920;-49
2024/01/27 07:59:23;;;;;;;;;;;;;;;4.01;81.97;101592.79;105599;1257;72327;-52
2024/01/27 08:01:51;;;;;;;;;;;;;;;4.03;81.93;101595.05;105716;1257;81441;-48
2024/01/27 08:04:19;;;;;;;;;;;;;;;4.06;82.04;101594.73;105588;1252;71844;-49
2024/01/27 08:06:48;;;;;;;;;;;;;;;4.07;81.93;101592.84;105567;1257;69895;-48
2024/01/27 08:09:16;;;;;;;;;;;;;;;4.09;81.92;101595.80;105599;1256;69898;-48
2024/01/27 08:11:44;;;;;;;;;;;;;;;4.10;82.04;101601.36;105682;1256;73025;-48
2024/01/27 08:14:12;;;;;;;;;;;;;;;4.11;81.98;101603.61;105622;1251;81976;-48
2024/01/27 08:16:40;;;;;;;;;;;;;;;4.12;81.95;101611.73;105631;1256;71867;-48
2024/01/27 08:19:09;;;;;;;;;;;;;;;4.14;81.94;101611.77;105785;1251;69836;-49
2024/01/27 08:21:37;;;;;;;;;;;;;;;4.15;81.80;101619.73;105627;1255;69938;-47
2024/01/27 08:24:05;;;;;;;;;;;;;;;4.17;81.89;101629.42;105601;1253;74628;-47
2024/01/27 08:26:34;;;;;;;;;;;;;;;4.20;81.83;101636.73;105632;1254;81789;-49
2024/01/27 08:29:02;;;;;;;;;;;;;;;4.23;81.96;101637.45;105708;1253;72204;-48
2024/01/27 08:31:30;;;;;;;;;;;;;;;4.28;81.95;101644.40;105632;1251;69988;-47
2024/01/27 08:33:58;;;;;;;;;;;;;;;4.32;81.85;101647.91;105615;1251;71572;-49
2024/01/27 08:36:26;;;;;;;;;;;;;;;4.36;81.77;101646.73;105690;1251;74322;-48
2024/01/27 08:38:54;;;;;;;;;;;;;;;4.40;81.80;101647.80;105630;1251;81735;-48
2024/01/27 08:41:23;;;;;;;;;;;;;;;4.44;81.89;101646.79;105618;1255;73843;-47
2024/01/27 08:43:55;;;;;;;;;;;;;;;4.47;81.79;101651.48;105585;1256;70000;-47
2024/01/27 08:46:23;;;;;;;;;;;;;;;4.49;81.72;101655.48;105674;1256;69959;-48
2024/01/27 08:48:51;;;;;;;;;;;;;;;4.50;81.61;101655.50;105553;1255;73881;-48
2024/01/27 08:51:19;;;;;;;;;;;;;;;4.51;81.55;101660.69;105575;1253;81503;-50
2024/01/27 08:53:51;;;;;;;;;;;;;;;4.54;81.61;101661.06;105632;1255;72951;-48
2024/01/27 08:56:19;;;;;;;;;;;;;;;4.58;81.43;101660.41;105661;1254;70225;-48
2024/01/27 08:58:47;;;;;;;;;;;;;;;4.60;81.43;101658.69;105546;1253;70064;-47
2024/01/27 09:01:16;;;;;;;;;;;;;;;4.62;81.30;101658.70;105697;1256;72182;-50
2024/01/27 09:03:44;;;;;;;;;;;;;;;4.65;81.34;101653.35;105811;1251;82139;-48
2024/01/27 09:06:12;;;;;;;;;;;;;;;4.68;81.46;101648.88;105623;1253;72350;-47
2024/01/27 09:08:41;;;;;;;;;;;;;;;4.72;81.38;101646.81;105646;1255;70003;-48
2024/01/27 09:11:09;;;;;;;;;;;;;;;4.75;81.32;101645.48;105608;1255;69916;-47
2024/01/27 09:13:37;;;;;;;;;;;;;;;4.78;81.29;101643.59;105612;1253;72977;-50
2024/01/27 09:16:05;;;;;;;;;;;;;;;4.84;81.20;101658.52;105571;1256;81624;-50
2024/01/27 09:18:34;;;;;;;;;;;;;;;4.86;81.12;101671.52;105617;1253;72055;-48
2024/01/27 09:21:02;;;;;;;;;;;;;;;4.86;81.01;101676.36;105605;1251;69903;-50
2024/01/27 09:23:30;;;;;;;;;;;;;;;4.88;81.24;101678.45;105766;1252;69906;-48
2024/01/27 09:25:58;;;;;;;;;;;;;;;4.93;81.33;101683.88;105636;1251;71788;-48
2024/01/27 09:28:26;;;;;;;;;;;;;;;5.01;81.17;101689.98;105708;1256;82740;-47
2024/01/27 09:30:55;;;;;;;;;;;;;;;5.07;81.10;101697.64;105600;1251;72254;-50
2024/01/27 09:33:23;;;;;;;;;;;;;;;5.11;81.18;101691.60;105622;1252;70073;-51
2024/01/27 09:35:51;;;;;;;;;;;;;;;5.11;81.15;101699.56;105698;1252;69141;-53
2024/01/27 09:38:20;;;;;;;;;;;;;;;5.10;80.90;101703.73;105779;1251;73088;-47
2024/01/27 09:40:48;;;;;;;;;;;;;;;5.11;81.08;101707.54;105580;1251;83652;-47
2024/01/27 09:43:16;;;;;;;;;;;;;;;5.11;81.08;101713.60;105756;1253;72060;-51
2024/01/27 09:45:44;;;;;;;;;;;;;;;5.13;81.08;101717.77;105578;1255;69948;-48
2024/01/27 09:48:12;;;;;;;;;;;;;;;5.19;81.08;101719.70;105644;1256;69959;-47
2024/01/27 09:50:41;;;;;;;;;;;;;;;5.23;81.08;101718.19;105599;1251;72740;-48
2024/01/27 09:53:10;;;;;;;;;;;;;;;5.25;81.08;101714.38;105674;1255;81412;-47
2024/01/27 09:55:38;;;;;;;;;;;;;;;5.28;81.07;101715.95;105653;1251;71089;-47
2024/01/27 09:58:06;;;;;;;;;;;;;;;5.27;80.80;101723.05;105714;1251;69987;-47
2024/01/27 10:00:35;;;;;;;;;;;;;;;5.24;80.48;101723.40;105640;1252;69919;-47
2024/01/27 10:03:03;;;;;;;;;;;;;;;5.21;80.33;101732.55;105731;1256;73396;-48
2024/01/27 10:05:32;;;;;;;;;;;;;;;5.19;80.43;101734.10;105764;1251;80384;-48
2024/01/27 10:08:00;;;;;;;;;;;;;;;5.23;80.52;101733.09;105600;1251;72618;-49
2024/01/27 10:10:28;;;;;;;;;;;;;;;5.29;80.65;101733.48;105668;1253;69976;-47
2024/01/27 10:12:58;;;;;;;;;;;;;;;5.35;80.52;101744.26;105572;1251;69986;-48
2024/01/27 10:15:27;;;;;;;;;;;;;;;5.41;80.54;101746.20;105979;1251;74140;-48
2024/01/27 10:18:08;;;;;;;;;;;;;;;5.48;80.37;101748.15;105695;1251;81874;-48
2024/01/27 10:20:36;;;;;;;;;;;;;;;5.52;80.40;101752.33;105673;1255;72006;-48
2024/01/27 10:23:11;;;;;;;;;;;;;;;5.54;80.30;101751.83;105666;1251;69981;-48
2024/01/27 10:25:40;;;;;;;;;;;;;;;5.57;80.32;101752.00;105868;1251;69904;-48
2024/01/27 10:28:11;;;;;;;;;;;;;;;5.60;80.06;101768.67;105817;1251;73243;-48
2024/01/27 10:30:39;;;;;;;;;;;;;;;5.58;79.82;101770.21;105594;1255;83279;-48
2024/01/27 10:33:10;;;;;;;;;;;;;;;5.56;79.83;101767.26;105748;1251;71910;-48
2024/01/27 10:35:39;;;;;;;;;;;;;;;5.57;79.85;101770.38;105695;1255;69865;-47
2024/01/27 10:38:07;;;;;;;;;;;;;;;5.56;79.75;101765.17;105742;1255;70047;-48
2024/01/27 10:40:37;;;;;;;;;;;;;;;5.55;79.82;101760.67;105574;1255;71825;-48
2024/01/27 10:43:08;;;;;;;;;;;;;;;5.55;79.67;101771.25;105743;1255;81532;-48
2024/01/27 10:45:40;;;;;;;;;;;;;;;5.60;79.98;101777.34;105618;1257;71660;-48
2024/01/27 10:48:11;;;;;;;;;;;;;;;5.70;79.88;101771.15;105670;1253;69956;-48
2024/01/27 10:50:40;;;;;;;;;;;;;;;5.80;80.11;101766.52;105676;1252;69899;-49
2024/01/27 10:53:21;;;;;;;;;;;;;;;5.86;79.93;101775.55;105625;1257;71544;-48
2024/01/27 10:55:54;;;;;;;;;;;;;;;5.85;79.74;101774.33;105654;1255;82609;-49
2024/01/27 10:58:25;;;;;;;;;;;;;;;5.85;79.70;101777.63;105711;1255;72426;-50
2024/01/27 11:00:53;;;;;;;;;;;;;;;5.86;79.69;101777.64;105720;1254;70329;-49
2024/01/27 11:03:22;;;;;;;;;;;;;;;5.84;79.29;101785.08;105804;1253;69896;-48
2024/01/27 11:05:51;;;;;;;;;;;;;;;5.84;79.44;101782.83;105748;1251;73505;-48
2024/01/27 11:08:19;;;;;;;;;;;;;;;5.86;79.33;101791.69;105696;1255;82569;-50
2024/01/27 11:10:47;;;;;;;;;;;;;;;5.87;79.34;101792.21;105734;1251;71773;-48
2024/01/27 11:13:15;;;;;;;;;;;;;;;5.88;79.39;101789.61;105677;1251;69923;-49
2024/01/27 11:15:53;;;;;;;;;;;;;;;5.92;79.46;101790.52;105596;1255;69970;-49
2024/01/27 11:18:21;;;;;;;;;;;;;;;5.96;79.18;101795.76;105674;1253;74034;-47
2024/01/27 11:20:53;;;;;;;;;;;;;;;5.99;79.51;101800.11;105674;1255;80350;-49
2024/01/27 11:23:31;;;;;;;;;;;;;;;5.99;79.20;101801.67;105612;1251;72483;-49
2024/01/27 11:26:02;;;;;;;;;;;;;;;6.00;79.13;101798.91;105613;1253;69919;-51
2024/01/27 11:28:30;;;;;;;;;;;;;;;6.07;79.04;101798.58;105651;1255;69870;-49
2024/01/27 11:31:02;;;;;;;;;;;;;;;6.17;79.19;101797.39;105585;1251;74297;-49
2024/01/27 11:33:31;;;;;;;;;;;;;;;6.31;79.39;101800.74;105610;1252;80823;-50
2024/01/27 11:36:00;;;;;;;;;;;;;;;6.56;78.98;101798.20;105607;1253;72134;-48
2024/01/27 11:38:28;;;;;;;;;;;;;;;6.80;78.77;101798.92;105653;1251;69981;-48
2024/01/27 11:40:56;;;;;;;;;;;;;;;6.85;78.03;101790.42;105613;1255;69999;-49
2024/01/27 11:43:25;;;;;;;;;;;;;;;6.96;77.83;101801.37;105687;1251;72842;-50
2024/01/27 11:45:57;;;;;;;;;;;;;;;7.13;78.01;101791.80;105654;1251;81383;-52
2024/01/27 11:48:25;;;;;;;;;;;;;;;7.20;77.74;101795.29;105621;1255;71983;-49
2024/01/27 11:51:11;;;;;;;;;;;;;;;7.14;77.52;101795.47;105566;1251;69993;-49
2024/01/27 11:53:40;;;;;;;;;;;;;;;7.16;77.53;101790.08;105685;1251;69963;-49
2024/01/27 11:56:08;;;;;;;;;;;;;;;7.32;77.62;101795.28;105643;1251;73542;-48
2024/01/27 11:58:36;;;;;;;;;;;;;;;7.35;76.97;101798.58;105643;1256;82161;-50
2024/01/27 12:01:04;;;;;;;;;;;;;;;7.27;77.00;101798.77;105641;1255;73430;-49
2024/01/27 12:03:32;;;;;;;;;;;;;;;7.18;76.56;101802.58;105590;1255;69926;-48
2024/01/27 12:06:01;;;;;;;;;;;;;;;7.08;76.35;101807.80;105632;1255;70076;-48
2024/01/27 12:08:29;;;;;;;;;;;;;;;7.01;76.60;101816.15;105681;1251;73442;-49
2024/01/27 12:10:57;;;;;;;;;;;;;;;7.03;76.71;101817.70;105641;1255;82673;-49
2024/01/27 12:13:25;;;;;;;;;;;;;;;7.08;76.62;101813.19;105639;1255;73372;-49
2024/01/27 12:15:53;;;;;;;;;;;;;;;7.12;76.71;101823.80;105638;1251;69964;-49
2024/01/27 12:18:22;;;;;;;;;;;;;;;7.09;76.71;101833.01;105593;1251;69982;-50
2024/01/27 12:20:54;;;;;;;;;;;;;;;7.09;76.62;101838.23;105660;1251;74002;-49
2024/01/27 12:23:22;;;;;;;;;;;;;;;7.11;76.38;101839.43;105605;1251;81533;-50
2024/01/27 12:25:54;;;;;;;;;;;;;;;7.13;76.52;101842.05;105606;1255;71832;-48
2024/01/27 12:28:22;;;;;;;;;;;;;;;7.36;77.01;101840.48;105604;1253;69887;-49
2024/01/27 12:30:51;;;;;;;;;;;;;;;7.48;76.70;101846.57;105664;1256;70053;-48
2024/01/27 12:33:23;;;;;;;;;;;;;;;7.40;76.22;101845.34;105607;1251;72133;-49
2024/01/27 12:35:53;;;;;;;;;;;;;;;7.34;76.04;101850.40;105533;1255;81550;-48
2024/01/27 12:38:22;;;;;;;;;;;;;;;7.34;76.14;101851.43;105534;1252;73005;-50
2024/01/27 12:40:50;;;;;;;;;;;;;;;7.35;76.04;101855.78;105645;1253;69961;-49
2024/01/27 12:43:18;;;;;;;;;;;;;;;7.31;75.70;101858.75;105624;1255;70009;-48